createdAt,value
2019-04-18T00:00:43.484Z,102220.35
2019-04-18T00:03:16.393Z,102220.16
2019-04-18T00:05:47.586Z,102214.13
2019-04-18T00:08:16.982Z,102212.58
2019-04-18T00:10:46.917Z,102221.47
2019-04-18T00:13:16.667Z,102219.18
2019-04-18T00:15:46.342Z,102224.42
2019-04-18T00:18:15.833Z,102225.13
2019-04-18T00:20:47.779Z,102223.42
2019-04-18T00:23:16.572Z,102227.22
2019-04-18T00:25:45.945Z,102222.08
2019-04-18T00:28:20.445Z,102226.28
2019-04-18T00:30:47.057Z,102221.47
2019-04-18T00:33:18.029Z,102223.28
2019-04-18T00:35:47.856Z,102228.61
2019-04-18T00:38:17.237Z,102222.81
2019-04-18T00:40:46.888Z,102226.06
2019-04-18T00:43:16.277Z,102228.36
2019-04-18T00:45:45.931Z,102226.80
2019-04-18T00:48:15.355Z,102230.20
2019-04-18T00:50:45.039Z,102235.37
2019-04-18T00:53:14.701Z,102233.63
2019-04-18T00:55:44.065Z,102229.42
2019-04-18T00:58:18.529Z,102228.17
2019-04-18T01:00:44.985Z,102229.17
2019-04-18T01:03:14.377Z,102232.85
2019-04-18T01:05:44.086Z,102232.91
2019-04-18T01:08:13.745Z,102232.20
2019-04-18T01:10:43.128Z,102230.06
2019-04-18T01:13:12.789Z,102229.34
2019-04-18T01:15:42.183Z,102230.88
2019-04-18T01:18:15.152Z,102238.30
2019-04-18T01:20:44.071Z,102240.86
2019-04-18T01:23:14.022Z,102238.31
2019-04-18T01:25:44.035Z,102242.19
2019-04-18T01:28:13.418Z,102242.19
2019-04-18T01:30:43.572Z,102243.14
2019-04-18T01:33:13.938Z,102250.89
2019-04-18T01:35:43.311Z,102252.33
2019-04-18T01:38:13.525Z,102251.13
2019-04-18T01:40:43.476Z,102250.91
2019-04-18T01:43:14.755Z,102250.10
2019-04-18T01:46:01.262Z,102247.09
2019-04-18T01:48:34.895Z,102250.24
2019-04-18T01:51:02.468Z,102248.59
2019-04-18T01:53:33.645Z,102250.42
2019-04-18T01:56:03.110Z,102244.06
2019-04-18T01:58:34.105Z,102251.50
2019-04-18T02:01:04.634Z,102254.28
2019-04-18T02:03:34.959Z,102255.72
2019-04-18T02:06:07.190Z,102255.31
2019-04-18T02:08:35.872Z,102253.87
2019-04-18T02:11:07.308Z,102263.70
2019-04-18T02:13:36.402Z,102250.78
2019-04-18T02:16:09.462Z,102264.33
2019-04-18T02:18:37.253Z,102267.56
2019-04-18T02:21:10.069Z,102262.76
2019-04-18T02:23:38.336Z,102273.58
2019-04-18T02:26:08.041Z,102273.26
2019-04-18T02:28:37.705Z,102274.42
2019-04-18T02:31:07.124Z,102267.87
2019-04-18T02:33:37.195Z,102275.14
2019-04-18T02:36:06.997Z,102273.48
2019-04-18T02:38:36.354Z,102276.30
2019-04-18T02:41:12.058Z,102272.76
2019-04-18T02:43:41.074Z,102278.14
2019-04-18T02:46:14.061Z,102271.15
2019-04-18T02:48:43.551Z,102269.48
2019-04-18T02:51:16.545Z,102271.14
2019-04-18T02:53:44.403Z,102271.14
2019-04-18T02:56:27.877Z,102272.62
2019-04-18T02:58:58.888Z,102267.37
2019-04-18T03:01:32.818Z,102270.60
2019-04-18T03:04:04.403Z,102271.06
2019-04-18T03:06:33.851Z,102273.83
2019-04-18T03:09:05.380Z,102266.47
2019-04-18T03:11:35.061Z,102271.58
2019-04-18T03:14:08.036Z,102279.45
2019-04-18T03:16:37.234Z,102281.42
2019-04-18T03:19:10.058Z,102276.98
2019-04-18T03:21:38.224Z,102280.61
2019-04-18T03:24:09.458Z,102281.95
2019-04-18T03:26:38.667Z,102277.60
2019-04-18T03:29:08.169Z,102283.97
2019-04-18T03:31:38.617Z,102283.97
2019-04-18T03:34:11.653Z,102281.09
2019-04-18T03:37:03.357Z,102281.09
2019-04-18T03:39:31.471Z,102284.31
2019-04-18T03:42:02.175Z,102284.31
2019-04-18T03:44:33.923Z,102288.80
2019-04-18T03:47:07.623Z,102283.50
2019-04-18T03:49:40.268Z,102292.58
2019-04-18T03:52:08.571Z,102287.82
2019-04-18T03:54:39.362Z,102290.63
2019-04-18T03:57:09.379Z,102290.72
2019-04-18T03:59:38.699Z,102291.20
2019-04-18T04:02:08.286Z,102290.80
2019-04-18T04:04:37.643Z,102289.78
2019-04-18T04:07:07.187Z,102301.55
2019-04-18T04:09:38.159Z,102301.55
2019-04-18T04:12:08.190Z,102303.83
2019-04-18T04:14:40.746Z,102306.44
2019-04-18T04:17:08.667Z,102302.80
2019-04-18T04:19:38.340Z,102308.41
2019-04-18T04:22:09.942Z,102307.59
2019-04-18T04:24:39.759Z,102319.40
2019-04-18T04:27:11.030Z,102319.44
2019-04-18T04:29:42.406Z,102311.31
2019-04-18T04:32:13.513Z,102320.77
2019-04-18T04:34:44.373Z,102327.00
2019-04-18T04:37:14.020Z,102327.00
2019-04-18T04:39:43.801Z,102328.27
2019-04-18T04:42:15.523Z,102331.76
2019-04-18T04:44:44.527Z,102333.19
2019-04-18T04:47:49.156Z,102342.67
2019-04-18T04:50:38.464Z,102336.69
2019-04-18T04:53:04.137Z,102334.39
2019-04-18T04:55:50.733Z,102335.09
2019-04-18T04:58:24.816Z,102340.24
2019-04-18T05:01:06.488Z,102338.20
2019-04-18T05:03:35.812Z,102343.50
2019-04-18T05:06:05.770Z,102345.72
2019-04-18T05:08:35.414Z,102350.94
2019-04-18T05:11:04.828Z,102351.25
2019-04-18T05:13:34.407Z,102359.09
2019-04-18T05:16:04.811Z,102364.66
2019-04-18T05:18:35.029Z,102354.91
2019-04-18T05:21:05.184Z,102367.02
2019-04-18T05:23:34.688Z,102371.23
2019-04-18T05:26:04.685Z,102368.83
2019-04-18T05:28:34.493Z,102362.55
2019-04-18T05:31:04.590Z,102362.55
2019-04-18T05:33:33.984Z,102372.08
2019-04-18T05:36:03.452Z,102381.08
2019-04-18T05:38:32.823Z,102385.78
2019-04-18T05:41:02.480Z,102376.05
2019-04-18T05:43:35.190Z,102383.66
2019-04-18T05:46:02.979Z,102383.49
2019-04-18T05:48:45.664Z,102385.75
2019-04-18T05:51:19.616Z,102392.45
2019-04-18T05:53:50.351Z,102392.23
2019-04-18T05:56:20.790Z,102396.50
2019-04-18T05:58:54.744Z,102401.66
2019-04-18T06:01:43.666Z,102397.72
2019-04-18T06:04:15.271Z,102396.42
2019-04-18T06:06:47.487Z,102395.75
2019-04-18T06:09:17.116Z,102395.93
2019-04-18T06:11:48.435Z,102406.47
2019-04-18T06:14:19.438Z,102403.95
2019-04-18T06:17:02.508Z,102400.63
2019-04-18T06:19:39.190Z,102406.18
2019-04-18T06:22:18.781Z,102401.50
2019-04-18T06:24:58.389Z,102407.22
2019-04-18T06:27:45.074Z,102403.11
2019-04-18T06:30:20.750Z,102407.48
2019-04-18T06:32:52.059Z,102411.83
2019-04-18T06:35:22.044Z,102400.90
2019-04-18T06:37:51.564Z,102410.59
2019-04-18T06:40:25.354Z,102413.33
2019-04-18T06:42:53.635Z,102412.25
2019-04-18T06:45:23.018Z,102412.30
2019-04-18T06:47:52.685Z,102410.61
2019-04-18T06:50:25.052Z,102416.24
2019-04-18T06:52:54.171Z,102410.15
2019-04-18T06:55:24.058Z,102410.15
2019-04-18T06:57:55.430Z,102413.02
2019-04-18T07:00:28.997Z,102417.97
2019-04-18T07:02:57.000Z,102411.05
2019-04-18T07:05:26.646Z,102413.23
2019-04-18T07:07:59.017Z,102415.70
2019-04-18T07:10:30.258Z,102411.88
2019-04-18T07:13:13.477Z,102412.23
2019-04-18T07:15:43.374Z,102414.41
2019-04-18T07:18:14.661Z,102415.33
2019-04-18T07:20:57.591Z,102410.98
2019-04-18T07:23:31.298Z,102413.42
2019-04-18T07:26:00.742Z,102417.30
2019-04-18T07:28:31.985Z,102418.38
2019-04-18T07:31:02.268Z,102416.53
2019-04-18T07:33:32.980Z,102417.55
2019-04-18T07:36:02.813Z,102417.55
2019-04-18T07:38:34.141Z,102420.16
2019-04-18T07:41:03.584Z,102415.67
2019-04-18T07:43:35.830Z,102415.67
2019-04-18T07:46:06.410Z,102421.09
2019-04-18T07:48:37.906Z,102421.45
2019-04-18T07:51:08.670Z,102415.17
2019-04-18T07:53:38.223Z,102416.47
2019-04-18T07:56:09.135Z,102420.33
2019-04-18T07:58:41.406Z,102414.13
2019-04-18T08:01:13.919Z,102412.34
2019-04-18T08:03:49.179Z,102405.93
2019-04-18T08:06:18.654Z,102410.59
2019-04-18T08:08:45.774Z,102414.41
2019-04-18T08:11:15.891Z,102417.64
2019-04-18T08:13:45.891Z,102421.67
2019-04-18T08:16:15.727Z,102422.89
2019-04-18T08:18:45.751Z,102419.08
2019-04-18T08:21:15.376Z,102424.72
2019-04-18T08:23:45.374Z,102421.02
2019-04-18T08:26:15.481Z,102422.07
2019-04-18T08:28:46.335Z,102427.19
2019-04-18T08:31:15.746Z,102427.97
2019-04-18T08:33:45.137Z,102437.30
2019-04-18T08:36:19.073Z,102432.86
2019-04-18T08:38:56.366Z,102436.05
2019-04-18T08:41:29.093Z,102428.64
2019-04-18T08:44:21.979Z,102438.67
2019-04-18T08:46:49.175Z,102434.63
2019-04-18T08:49:23.335Z,102436.66
2019-04-18T08:52:11.034Z,102435.95
2019-04-18T08:54:58.099Z,102433.11
2019-04-18T08:57:27.556Z,102428.28
2019-04-18T08:59:56.928Z,102431.14
2019-04-18T09:02:26.997Z,102431.99
2019-04-18T09:04:57.091Z,102434.83
2019-04-18T09:07:32.429Z,102430.08
2019-04-18T09:10:05.941Z,102423.86
2019-04-18T09:12:38.161Z,102433.18
2019-04-18T09:15:05.514Z,102426.22
2019-04-18T09:17:36.231Z,102429.71
2019-04-18T09:20:13.594Z,102422.73
2019-04-18T09:22:42.231Z,102423.55
2019-04-18T09:25:13.943Z,102417.33
2019-04-18T09:27:48.056Z,102419.87
2019-04-18T09:30:23.348Z,102423.22
2019-04-18T09:32:47.968Z,102418.92
2019-04-18T09:35:17.355Z,102422.17
2019-04-18T09:37:47.084Z,102409.36
2019-04-18T09:40:21.551Z,102409.36
2019-04-18T09:42:48.144Z,102401.34
2019-04-18T09:45:28.311Z,102401.34
2019-04-18T09:47:49.414Z,102402.76
2019-04-18T09:50:20.856Z,102405.75
2019-04-18T09:52:50.232Z,102396.07
2019-04-18T09:55:20.280Z,102399.61
2019-04-18T09:57:50.181Z,102397.30
2019-04-18T10:00:25.058Z,102397.87
2019-04-18T10:02:51.561Z,102402.33
2019-04-18T10:05:26.639Z,102394.05
2019-04-18T10:07:52.175Z,102393.17
2019-04-18T10:10:21.910Z,102383.38
2019-04-18T10:12:51.414Z,102384.02
2019-04-18T10:15:26.319Z,102383.02
2019-04-18T10:17:52.774Z,102379.08
2019-04-18T10:20:28.856Z,102387.45
2019-04-18T10:22:57.636Z,102390.28
2019-04-18T10:25:36.266Z,102382.74
2019-04-18T10:28:08.626Z,102379.64
2019-04-18T10:30:40.202Z,102387.78
2019-04-18T10:33:09.584Z,102382.09
2019-04-18T10:35:39.272Z,102380.52
2019-04-18T10:38:10.246Z,102369.39
2019-04-18T10:40:41.840Z,102375.69
2019-04-18T10:43:11.240Z,102371.97
2019-04-18T10:45:41.140Z,102367.50
2019-04-18T10:48:10.687Z,102373.58
2019-04-18T10:50:40.790Z,102373.20
2019-04-18T10:53:10.849Z,102363.81
2019-04-18T10:55:40.323Z,102367.56
2019-04-18T10:58:10.079Z,102368.28
2019-04-18T11:00:43.678Z,102365.28
2019-04-18T11:03:11.204Z,102355.58
2019-04-18T11:05:40.684Z,102367.67
2019-04-18T11:08:10.615Z,102360.41
2019-04-18T11:10:41.059Z,102361.69
2019-04-18T11:13:10.673Z,102354.30
2019-04-18T11:15:40.593Z,102353.02
2019-04-18T11:18:10.198Z,102353.02
2019-04-18T11:20:39.573Z,102359.40
2019-04-18T11:23:09.239Z,102361.49
2019-04-18T11:25:38.787Z,102350.54
2019-04-18T11:28:08.165Z,102338.91
2019-04-18T11:30:38.155Z,102335.45
2019-04-18T11:33:07.936Z,102335.45
2019-04-18T11:35:37.383Z,102338.81
2019-04-18T11:38:06.764Z,102342.61
2019-04-18T11:40:36.670Z,102339.50
2019-04-18T11:43:07.209Z,102333.33
2019-04-18T11:45:37.489Z,102326.20
2019-04-18T11:48:08.460Z,102330.52
2019-04-18T11:50:37.780Z,102325.75
2019-04-18T11:53:07.187Z,102313.64
2019-04-18T11:55:36.834Z,102317.18
2019-04-18T11:58:06.587Z,102314.98
2019-04-18T12:00:38.178Z,102305.84
2019-04-18T12:03:25.173Z,102310.22
2019-04-18T12:05:54.631Z,102307.16
2019-04-18T12:08:24.235Z,102295.44
2019-04-18T12:10:54.706Z,102315.59
2019-04-18T12:13:24.161Z,102306.09
2019-04-18T12:15:53.538Z,102303.51
2019-04-18T12:18:22.920Z,102301.33
2019-04-18T12:20:52.304Z,102291.19
2019-04-18T12:23:26.316Z,102295.30
2019-04-18T12:25:58.113Z,102303.53
2019-04-18T12:28:27.483Z,102301.45
2019-04-18T12:30:57.185Z,102306.51
2019-04-18T12:33:26.557Z,102293.02
2019-04-18T12:35:55.945Z,102285.61
2019-04-18T12:38:26.033Z,102287.04
2019-04-18T12:41:05.665Z,102277.77
2019-04-18T12:43:26.582Z,102289.66
2019-04-18T12:45:56.340Z,102277.85
2019-04-18T12:48:25.710Z,102278.83
2019-04-18T12:50:55.463Z,102289.12
2019-04-18T12:53:24.839Z,102272.75
2019-04-18T12:55:57.778Z,102278.34
2019-04-18T12:58:25.375Z,102278.25
2019-04-18T13:00:54.745Z,102283.47
2019-04-18T13:03:24.883Z,102274.78
2019-04-18T13:05:57.839Z,102279.12
2019-04-18T13:08:29.878Z,102266.78
2019-04-18T13:11:06.586Z,102283.44
2019-04-18T13:13:38.176Z,102281.44
2019-04-18T13:16:12.161Z,102282.23
2019-04-18T13:18:42.191Z,102272.43
2019-04-18T13:21:11.573Z,102269.98
2019-04-18T13:23:42.102Z,102267.77
2019-04-18T13:26:12.820Z,102264.59
2019-04-18T13:28:42.349Z,102264.53
2019-04-18T13:31:11.720Z,102260.77
2019-04-18T13:33:42.172Z,102266.05
2019-04-18T13:36:11.926Z,102256.02
2019-04-18T13:38:42.759Z,102260.28
2019-04-18T13:41:13.046Z,102264.94
2019-04-18T13:43:42.978Z,102265.69
2019-04-18T13:46:13.793Z,102268.69
2019-04-18T13:48:43.789Z,102268.55
2019-04-18T13:51:13.466Z,102270.95
2019-04-18T13:53:55.429Z,102266.08
2019-04-18T13:56:15.074Z,102259.88
2019-04-18T13:58:44.842Z,102251.98
2019-04-18T14:01:15.241Z,102262.45
2019-04-18T14:03:44.919Z,102257.44
2019-04-18T14:06:14.560Z,102262.63
2019-04-18T14:08:44.178Z,102257.13
2019-04-18T14:11:15.546Z,102273.78
2019-04-18T14:13:45.690Z,102255.92
2019-04-18T14:16:15.064Z,102259.09
2019-04-18T14:18:44.739Z,102247.97
2019-04-18T14:21:14.126Z,102251.98
2019-04-18T14:23:43.800Z,102249.19
2019-04-18T14:26:13.453Z,102249.19
2019-04-18T14:28:42.887Z,102249.14
2019-04-18T14:31:12.470Z,102260.11
2019-04-18T14:33:42.210Z,102261.97
2019-04-18T14:36:11.702Z,102255.88
2019-04-18T14:38:41.087Z,102245.84
2019-04-18T14:43:45.258Z,102242.03
2019-04-18T14:46:13.807Z,102242.50
2019-04-18T14:48:43.216Z,102251.70
2019-04-18T14:51:13.200Z,102243.98
2019-04-18T14:53:43.376Z,102246.56
2019-04-18T14:56:13.921Z,102242.89
2019-04-18T14:58:43.567Z,102248.23
2019-04-18T15:01:12.950Z,102233.58
2019-04-18T15:03:42.840Z,102245.84
2019-04-18T15:06:12.565Z,102240.05
2019-04-18T15:08:44.039Z,102233.06
2019-04-18T15:11:13.674Z,102242.56
2019-04-18T15:13:44.692Z,102247.52
2019-04-18T15:16:14.320Z,102243.70
2019-04-18T15:18:44.560Z,102242.97
2019-04-18T15:21:14.262Z,102248.52
2019-04-18T15:23:43.992Z,102256.52
2019-04-18T15:26:14.848Z,102242.67
2019-04-18T15:28:50.473Z,102244.22
2019-04-18T15:31:19.859Z,102241.51
2019-04-18T15:33:51.639Z,102242.69
2019-04-18T15:36:21.943Z,102245.44
2019-04-18T15:38:53.288Z,102241.98
2019-04-18T15:41:22.674Z,102243.70
2019-04-18T15:43:52.063Z,102254.30
2019-04-18T15:46:26.564Z,102246.20
2019-04-18T15:48:55.955Z,102244.31
2019-04-18T15:51:25.589Z,102243.92
2019-04-18T15:53:55.388Z,102243.92
2019-04-18T15:56:24.830Z,102244.41
2019-04-18T15:58:54.279Z,102240.63
2019-04-18T16:01:23.691Z,102239.91
2019-04-18T16:03:54.844Z,102249.44
2019-04-18T16:06:24.279Z,102248.95
2019-04-18T16:08:54.794Z,102251.34
2019-04-18T16:11:25.267Z,102242.91
2019-04-18T16:13:55.869Z,102249.90
2019-04-18T16:16:25.594Z,102240.30
2019-04-18T16:18:55.419Z,102246.97
2019-04-18T16:21:24.972Z,102246.67
2019-04-18T16:23:54.350Z,102242.58
2019-04-18T16:26:23.825Z,102242.11
2019-04-18T16:28:53.213Z,102242.58
2019-04-18T16:31:22.792Z,102242.95
2019-04-18T16:33:52.955Z,102242.40
2019-04-18T16:36:24.693Z,102246.06
2019-04-18T16:38:53.417Z,102240.44
2019-04-18T16:41:22.843Z,102247.98
2019-04-18T16:43:52.585Z,102240.77
2019-04-18T16:46:21.987Z,102242.02
2019-04-18T16:48:51.674Z,102241.81
2019-04-18T16:51:21.044Z,102243.34
2019-04-18T16:53:52.200Z,102251.94
2019-04-18T16:56:21.800Z,102244.91
2019-04-18T16:58:51.191Z,102248.26
2019-04-18T17:01:20.834Z,102250.64
2019-04-18T17:03:52.532Z,102258.62
2019-04-18T17:06:22.937Z,102251.95
2019-04-18T17:11:29.481Z,102255.09
2019-04-18T17:14:11.577Z,102257.76
2019-04-18T17:16:44.519Z,102265.41
2019-04-18T17:19:14.234Z,102259.73
2019-04-18T17:21:43.605Z,102268.95
2019-04-18T17:24:13.029Z,102263.63
2019-04-18T17:29:35.928Z,102268.84
2019-04-18T17:32:05.483Z,102262.86
2019-04-18T17:34:54.410Z,102273.61
2019-04-18T17:37:53.047Z,102271.09
2019-04-18T17:40:27.744Z,102278.64
2019-04-18T17:42:51.129Z,102278.13
2019-04-18T17:48:26.949Z,102280.95
2019-04-18T17:51:41.859Z,102279.11
2019-04-18T17:54:29.980Z,102288.04
2019-04-18T17:57:02.407Z,102286.66
2019-04-18T17:59:29.112Z,102287.12
2019-04-18T18:02:15.331Z,102291.27
2019-04-18T18:04:52.196Z,102292.09
2019-04-18T18:07:28.023Z,102289.70
2019-04-18T18:10:03.341Z,102298.53
2019-04-18T18:16:22.170Z,102295.28
2019-04-18T18:18:51.483Z,102302.81
2019-04-18T18:24:24.052Z,102310.66
2019-04-18T18:26:55.912Z,102310.82
2019-04-18T18:29:31.285Z,102307.89
2019-04-18T18:32:11.095Z,102307.31
2019-04-18T18:34:52.689Z,102313.05
2019-04-18T18:38:01.217Z,102312.94
2019-04-18T18:40:28.488Z,102321.91
2019-04-18T18:43:15.004Z,102320.19
2019-04-18T18:45:59.607Z,102325.94
2019-04-18T18:48:37.507Z,102324.34
2019-04-18T18:51:20.140Z,102331.17
2019-04-18T18:54:03.095Z,102328.59
2019-04-18T18:56:34.489Z,102337.91
2019-04-18T18:59:24.501Z,102335.55
2019-04-18T19:02:03.558Z,102340.77
2019-04-18T19:05:02.343Z,102348.81
2019-04-18T19:11:13.950Z,102347.59
2019-04-18T19:13:37.128Z,102353.05
2019-04-18T19:16:08.578Z,102350.83
2019-04-18T19:18:30.589Z,102353.42
2019-04-18T19:21:07.133Z,102352.53
2019-04-18T19:23:43.229Z,102358.84
2019-04-18T19:26:17.832Z,102361.09
2019-04-18T19:29:02.578Z,102354.75
2019-04-18T19:31:26.481Z,102361.09
2019-04-18T19:34:18.035Z,102355.39
2019-04-18T19:37:08.342Z,102355.00
2019-04-18T19:39:51.192Z,102354.38
2019-04-18T19:42:16.609Z,102356.58
2019-04-18T19:44:52.297Z,102356.23
2019-04-18T19:47:24.942Z,102350.89
2019-04-18T19:50:01.118Z,102349.89
2019-04-18T19:52:39.716Z,102356.32
2019-04-18T19:55:17.912Z,102358.80
2019-04-18T19:57:51.250Z,102362.86
2019-04-18T20:00:30.641Z,102362.75
2019-04-18T20:03:07.291Z,102364.22
2019-04-18T20:06:01.934Z,102362.33
2019-04-18T20:08:35.094Z,102369.02
2019-04-18T20:14:14.222Z,102374.03
2019-04-18T20:19:29.359Z,102383.34
2019-04-18T20:22:22.314Z,102380.34
2019-04-18T20:24:58.353Z,102379.92
2019-04-18T20:27:30.708Z,102382.27
2019-04-18T20:31:02.246Z,102383.97
2019-04-18T20:34:04.026Z,102383.67
2019-04-18T20:36:48.248Z,102383.67
2019-04-18T20:39:39.285Z,102387.84
2019-04-18T20:42:46.425Z,102384.70
2019-04-18T20:48:12.977Z,102390.52
2019-04-18T20:51:14.015Z,102388.97
2019-04-18T20:54:06.256Z,102397.66
2019-04-18T20:56:31.865Z,102392.47
2019-04-18T20:59:07.079Z,102396.62
2019-04-18T21:01:51.761Z,102395.83
2019-04-18T21:04:33.406Z,102391.58
2019-04-18T21:10:33.328Z,102394.88
2019-04-18T21:13:05.244Z,102397.93
2019-04-18T21:15:35.062Z,102396.42
2019-04-18T21:18:08.695Z,102402.45
2019-04-18T21:20:41.662Z,102403.03
2019-04-18T21:23:12.695Z,102406.84
2019-04-18T21:26:02.294Z,102404.83
2019-04-18T21:28:43.559Z,102405.66
2019-04-18T21:31:22.134Z,102409.55
2019-04-18T21:34:21.432Z,102412.00
2019-04-18T21:37:06.337Z,102401.84
2019-04-18T21:39:42.208Z,102413.80
2019-04-18T21:44:58.797Z,102410.94
2019-04-18T21:47:49.446Z,102424.83
2019-04-18T21:50:28.497Z,102423.90
2019-04-18T21:53:02.848Z,102430.61
2019-04-18T21:55:34.122Z,102432.28
2019-04-18T21:58:41.216Z,102429.41
2019-04-18T22:04:02.961Z,102426.63
2019-04-18T22:06:41.524Z,102431.97
2019-04-18T22:09:20.359Z,102430.34
2019-04-18T22:11:53.731Z,102435.45
2019-04-18T22:14:20.799Z,102432.16
2019-04-18T22:16:51.379Z,102433.35
2019-04-18T22:19:21.727Z,102437.14
2019-04-18T22:21:55.046Z,102433.27
2019-04-18T22:24:25.594Z,102440.86
2019-04-18T22:26:56.148Z,102445.11
2019-04-18T22:29:28.915Z,102454.79
2019-04-18T22:32:02.750Z,102451.02
2019-04-18T22:34:30.473Z,102457.36
2019-04-18T22:37:03.088Z,102457.16
2019-04-18T22:39:33.309Z,102463.27
2019-04-18T22:42:02.868Z,102462.20
2019-04-18T22:44:34.264Z,102462.50
2019-04-18T22:47:08.297Z,102462.79
2019-04-18T22:49:35.791Z,102464.05
2019-04-18T22:52:05.743Z,102465.24
2019-04-18T22:54:39.083Z,102465.24
2019-04-18T22:57:07.748Z,102457.69
2019-04-18T22:59:45.530Z,102464.36
2019-04-18T23:02:10.848Z,102455.17
2019-04-18T23:04:41.533Z,102468.92
2019-04-18T23:07:12.819Z,102463.41
2019-04-18T23:09:44.774Z,102468.14
2019-04-18T23:12:13.169Z,102471.92
2019-04-18T23:14:48.492Z,102471.60
2019-04-18T23:17:15.012Z,102466.30
2019-04-18T23:19:49.600Z,102470.53
2019-04-18T23:22:16.000Z,102469.75
2019-04-18T23:24:49.252Z,102469.92
2019-04-18T23:27:16.741Z,102471.16
2019-04-18T23:29:49.500Z,102470.59
2019-04-18T23:32:21.968Z,102463.50
2019-04-18T23:34:49.986Z,102467.27
2019-04-18T23:37:25.232Z,102472.79
2019-04-18T23:40:12.212Z,102466.20
2019-04-18T23:42:49.169Z,102473.05
2019-04-18T23:45:18.330Z,102471.19
2019-04-18T23:47:51.124Z,102479.41
2019-04-18T23:50:20.133Z,102471.19
2019-04-18T23:52:51.718Z,102473.44
2019-04-18T23:55:23.144Z,102472.25
2019-04-18T23:57:59.521Z,102477.44
